sensor_id;sensor_type;location;lat;lon;timestamp;temperature;humidity
9509;DHT22;4792;50.088;8.122;2022-08-03T00:00:32;22.00;99.90
9509;DHT22;4792;50.088;8.122;2022-08-03T00:03:00;22.00;99.90
9509;DHT22;4792;50.088;8.122;2022-08-03T00:05:29;22.00;99.90
9509;DHT22;4792;50.088;8.122;2022-08-03T00:07:58;21.90;99.90
9509;DHT22;4792;50.088;8.122;2022-08-03T00:10:27;21.90;99.90
9509;DHT22;4792;50.088;8.122;2022-08-03T00:12:56;21.90;99.90
9509;DHT22;4792;50.088;8.122;2022-08-03T00:15:24;21.90;99.90
9509;DHT22;4792;50.088;8.122;2022-08-03T00:17:53;21.90;99.90
9509;DHT22;4792;50.088;8.122;2022-08-03T00:20:21;21.90;99.90
9509;DHT22;4792;50.088;8.122;2022-08-03T00:22:50;21.90;99.90
9509;DHT22;4792;50.088;8.122;2022-08-03T00:25:18;21.90;99.90
9509;DHT22;4792;50.088;8.122;2022-08-03T00:27:46;21.90;99.90
9509;DHT22;4792;50.088;8.122;2022-08-03T00:30:16;21.90;99.90
9509;DHT22;4792;50.088;8.122;2022-08-03T00:32:45;21.90;99.90
9509;DHT22;4792;50.088;8.122;2022-08-03T00:35:16;21.80;99.90
9509;DHT22;4792;50.088;8.122;2022-08-03T00:38:03;21.80;99.90
9509;DHT22;4792;50.088;8.122;2022-08-03T00:40:31;21.80;99.90
9509;DHT22;4792;50.088;8.122;2022-08-03T00:43:01;21.80;99.90
9509;DHT22;4792;50.088;8.122;2022-08-03T00:45:31;21.70;99.90
9509;DHT22;4792;50.088;8.122;2022-08-03T00:48:00;21.70;99.90
9509;DHT22;4792;50.088;8.122;2022-08-03T00:50:33;21.70;99.90
9509;DHT22;4792;50.088;8.122;2022-08-03T00:53:04;21.60;99.90
9509;DHT22;4792;50.088;8.122;2022-08-03T00:55:34;21.60;99.90
9509;DHT22;4792;50.088;8.122;2022-08-03T00:58:03;21.60;99.90
9509;DHT22;4792;50.088;8.122;2022-08-03T01:00:34;21.50;99.90
9509;DHT22;4792;50.088;8.122;2022-08-03T01:03:05;21.50;99.90
9509;DHT22;4792;50.088;8.122;2022-08-03T01:05:40;21.50;99.90
9509;DHT22;4792;50.088;8.122;2022-08-03T01:08:16;21.40;99.90
9509;DHT22;4792;50.088;8.122;2022-08-03T01:10:52;21.40;99.90
9509;DHT22;4792;50.088;8.122;2022-08-03T01:13:27;21.40;99.90
9509;DHT22;4792;50.088;8.122;2022-08-03T01:16:20;21.30;99.90
9509;DHT22;4792;50.088;8.122;2022-08-03T01:19:12;21.30;99.90
9509;DHT22;4792;50.088;8.122;2022-08-03T01:21:55;21.20;99.90
9509;DHT22;4792;50.088;8.122;2022-08-03T01:24:34;21.20;99.90
9509;DHT22;4792;50.088;8.122;2022-08-03T01:27:08;21.20;99.90
9509;DHT22;4792;50.088;8.122;2022-08-03T01:29:55;21.20;99.90
9509;DHT22;4792;50.088;8.122;2022-08-03T01:32:30;21.10;99.90
9509;DHT22;4792;50.088;8.122;2022-08-03T01:35:25;21.10;99.90
9509;DHT22;4792;50.088;8.122;2022-08-03T01:37:56;21.10;99.90
9509;DHT22;4792;50.088;8.122;2022-08-03T01:40:26;21.10;99.90
9509;DHT22;4792;50.088;8.122;2022-08-03T01:42:56;21.10;99.90
9509;DHT22;4792;50.088;8.122;2022-08-03T01:45:27;21.10;99.90
9509;DHT22;4792;50.088;8.122;2022-08-03T01:48:02;21.10;99.90
9509;DHT22;4792;50.088;8.122;2022-08-03T01:50:31;21.00;99.90
9509;DHT22;4792;50.088;8.122;2022-08-03T01:53:01;21.00;99.90
9509;DHT22;4792;50.088;8.122;2022-08-03T01:55:31;21.00;99.90
9509;DHT22;4792;50.088;8.122;2022-08-03T01:58:02;21.00;99.90
9509;DHT22;4792;50.088;8.122;2022-08-03T02:00:34;21.00;99.90
9509;DHT22;4792;50.088;8.122;2022-08-03T02:03:04;20.90;99.90
9509;DHT22;4792;50.088;8.122;2022-08-03T02:05:33;20.90;99.90
9509;DHT22;4792;50.088;8.122;2022-08-03T02:08:04;20.90;99.90
9509;DHT22;4792;50.088;8.122;2022-08-03T02:10:34;20.80;99.90
9509;DHT22;4792;50.088;8.122;2022-08-03T02:13:04;20.80;99.90
9509;DHT22;4792;50.088;8.122;2022-08-03T02:15:36;20.80;99.90
9509;DHT22;4792;50.088;8.122;2022-08-03T02:18:07;20.80;99.90
9509;DHT22;4792;50.088;8.122;2022-08-03T02:20:38;20.70;99.90
9509;DHT22;4792;50.088;8.122;2022-08-03T02:23:07;20.70;99.90
9509;DHT22;4792;50.088;8.122;2022-08-03T02:25:40;20.70;99.90
9509;DHT22;4792;50.088;8.122;2022-08-03T02:28:11;20.70;99.90
9509;DHT22;4792;50.088;8.122;2022-08-03T02:30:44;20.70;99.90
9509;DHT22;4792;50.088;8.122;2022-08-03T02:33:24;20.70;99.90
9509;DHT22;4792;50.088;8.122;2022-08-03T02:35:54;20.60;99.90
9509;DHT22;4792;50.088;8.122;2022-08-03T02:38:30;20.70;99.90
9509;DHT22;4792;50.088;8.122;2022-08-03T02:41:00;20.60;99.90
9509;DHT22;4792;50.088;8.122;2022-08-03T02:43:30;20.60;99.90
9509;DHT22;4792;50.088;8.122;2022-08-03T02:46:27;20.60;99.90
9509;DHT22;4792;50.088;8.122;2022-08-03T02:48:56;20.60;99.90
9509;DHT22;4792;50.088;8.122;2022-08-03T02:51:46;20.60;99.90
9509;DHT22;4792;50.088;8.122;2022-08-03T02:54:17;20.60;99.90
9509;DHT22;4792;50.088;8.122;2022-08-03T02:56:46;20.50;99.90
9509;DHT22;4792;50.088;8.122;2022-08-03T02:59:17;20.50;99.90
9509;DHT22;4792;50.088;8.122;2022-08-03T03:01:47;20.50;99.90
9509;DHT22;4792;50.088;8.122;2022-08-03T03:04:16;20.50;99.90
9509;DHT22;4792;50.088;8.122;2022-08-03T03:06:47;20.50;99.90
9509;DHT22;4792;50.088;8.122;2022-08-03T03:09:17;20.40;99.90
9509;DHT22;4792;50.088;8.122;2022-08-03T03:11:48;20.40;99.90
9509;DHT22;4792;50.088;8.122;2022-08-03T03:14:16;20.40;99.90
9509;DHT22;4792;50.088;8.122;2022-08-03T03:17:01;20.40;99.90
9509;DHT22;4792;50.088;8.122;2022-08-03T03:19:31;20.40;99.90
9509;DHT22;4792;50.088;8.122;2022-08-03T03:22:01;20.40;99.90
9509;DHT22;4792;50.088;8.122;2022-08-03T03:24:29;20.40;99.90
9509;DHT22;4792;50.088;8.122;2022-08-03T03:26:58;20.40;99.90
9509;DHT22;4792;50.088;8.122;2022-08-03T03:29:27;20.40;99.90
9509;DHT22;4792;50.088;8.122;2022-08-03T03:31:55;20.40;99.90
9509;DHT22;4792;50.088;8.122;2022-08-03T03:34:29;20.30;99.90
9509;DHT22;4792;50.088;8.122;2022-08-03T03:36:57;20.30;99.90
9509;DHT22;4792;50.088;8.122;2022-08-03T03:39:26;20.30;99.90
9509;DHT22;4792;50.088;8.122;2022-08-03T03:41:54;20.30;99.90
9509;DHT22;4792;50.088;8.122;2022-08-03T03:44:26;20.30;99.90
9509;DHT22;4792;50.088;8.122;2022-08-03T03:46:54;20.20;99.90
9509;DHT22;4792;50.088;8.122;2022-08-03T03:49:23;20.20;99.90
9509;DHT22;4792;50.088;8.122;2022-08-03T03:51:53;20.20;99.90
9509;DHT22;4792;50.088;8.122;2022-08-03T03:54:22;20.10;99.90
9509;DHT22;4792;50.088;8.122;2022-08-03T03:56:55;20.10;99.90
9509;DHT22;4792;50.088;8.122;2022-08-03T03:59:23;20.10;99.90
9509;DHT22;4792;50.088;8.122;2022-08-03T04:01:51;20.10;99.90
9509;DHT22;4792;50.088;8.122;2022-08-03T04:04:25;20.00;99.90
9509;DHT22;4792;50.088;8.122;2022-08-03T04:07:12;20.00;99.90
9509;DHT22;4792;50.088;8.122;2022-08-03T04:10:06;20.00;99.90
9509;DHT22;4792;50.088;8.122;2022-08-03T04:13:06;20.00;99.90
9509;DHT22;4792;50.088;8.122;2022-08-03T04:15:37;20.00;99.90
9509;DHT22;4792;50.088;8.122;2022-08-03T04:18:08;20.10;99.90
9509;DHT22;4792;50.088;8.122;2022-08-03T04:20:39;20.10;99.90
9509;DHT22;4792;50.088;8.122;2022-08-03T04:23:16;20.10;99.90
9509;DHT22;4792;50.088;8.122;2022-08-03T04:25:48;20.10;99.90
9509;DHT22;4792;50.088;8.122;2022-08-03T04:28:18;20.10;99.90
9509;DHT22;4792;50.088;8.122;2022-08-03T04:30:58;20.10;99.90
9509;DHT22;4792;50.088;8.122;2022-08-03T04:33:28;20.20;99.90
9509;DHT22;4792;50.088;8.122;2022-08-03T04:36:00;20.10;99.90
9509;DHT22;4792;50.088;8.122;2022-08-03T04:38:33;20.20;99.90
9509;DHT22;4792;50.088;8.122;2022-08-03T04:41:04;20.20;99.90
9509;DHT22;4792;50.088;8.122;2022-08-03T04:43:32;20.20;99.90
9509;DHT22;4792;50.088;8.122;2022-08-03T04:46:01;20.20;99.90
9509;DHT22;4792;50.088;8.122;2022-08-03T04:48:31;20.30;99.90
9509;DHT22;4792;50.088;8.122;2022-08-03T04:50:59;20.30;99.90
9509;DHT22;4792;50.088;8.122;2022-08-03T04:53:31;20.30;99.90
9509;DHT22;4792;50.088;8.122;2022-08-03T04:56:03;20.40;99.90
9509;DHT22;4792;50.088;8.122;2022-08-03T04:58:32;20.40;99.90
9509;DHT22;4792;50.088;8.122;2022-08-03T05:01:00;20.50;99.90
9509;DHT22;4792;50.088;8.122;2022-08-03T05:03:28;20.50;99.90
9509;DHT22;4792;50.088;8.122;2022-08-03T05:05:57;20.50;99.90
9509;DHT22;4792;50.088;8.122;2022-08-03T05:08:28;20.60;99.90
9509;DHT22;4792;50.088;8.122;2022-08-03T05:10:58;20.70;99.90
9509;DHT22;4792;50.088;8.122;2022-08-03T05:13:27;20.80;99.90
9509;DHT22;4792;50.088;8.122;2022-08-03T05:15:55;20.90;99.90
9509;DHT22;4792;50.088;8.122;2022-08-03T05:18:23;21.00;99.90
9509;DHT22;4792;50.088;8.122;2022-08-03T05:20:51;21.10;99.90
9509;DHT22;4792;50.088;8.122;2022-08-03T05:23:19;21.10;99.90
9509;DHT22;4792;50.088;8.122;2022-08-03T05:25:47;21.20;99.90
9509;DHT22;4792;50.088;8.122;2022-08-03T05:28:17;21.40;99.90
9509;DHT22;4792;50.088;8.122;2022-08-03T05:30:45;21.50;99.90
9509;DHT22;4792;50.088;8.122;2022-08-03T05:33:13;21.60;99.90
9509;DHT22;4792;50.088;8.122;2022-08-03T05:35:41;21.70;99.90
9509;DHT22;4792;50.088;8.122;2022-08-03T05:38:30;21.80;99.90
9509;DHT22;4792;50.088;8.122;2022-08-03T05:41:01;22.00;99.90
9509;DHT22;4792;50.088;8.122;2022-08-03T05:43:51;22.10;99.90
9509;DHT22;4792;50.088;8.122;2022-08-03T05:46:21;22.20;99.90
9509;DHT22;4792;50.088;8.122;2022-08-03T05:48:50;22.30;99.90
9509;DHT22;4792;50.088;8.122;2022-08-03T05:51:18;22.40;99.90
9509;DHT22;4792;50.088;8.122;2022-08-03T05:53:46;22.50;99.90
9509;DHT22;4792;50.088;8.122;2022-08-03T05:56:14;22.70;99.90
9509;DHT22;4792;50.088;8.122;2022-08-03T05:58:46;22.90;99.90
9509;DHT22;4792;50.088;8.122;2022-08-03T06:01:16;23.10;99.90
9509;DHT22;4792;50.088;8.122;2022-08-03T06:03:44;23.20;99.90
9509;DHT22;4792;50.088;8.122;2022-08-03T06:06:13;23.20;99.90
9509;DHT22;4792;50.088;8.122;2022-08-03T06:08:42;23.30;99.90
9509;DHT22;4792;50.088;8.122;2022-08-03T06:11:10;23.30;99.90
9509;DHT22;4792;50.088;8.122;2022-08-03T06:13:39;23.40;99.90
9509;DHT22;4792;50.088;8.122;2022-08-03T06:16:07;23.40;99.90
9509;DHT22;4792;50.088;8.122;2022-08-03T06:18:37;23.40;99.90
9509;DHT22;4792;50.088;8.122;2022-08-03T06:21:06;23.40;99.90
9509;DHT22;4792;50.088;8.122;2022-08-03T06:23:42;23.50;99.90
9509;DHT22;4792;50.088;8.122;2022-08-03T06:26:25;23.60;99.90
9509;DHT22;4792;50.088;8.122;2022-08-03T06:28:53;23.70;99.90
9509;DHT22;4792;50.088;8.122;2022-08-03T06:31:24;23.80;99.90
9509;DHT22;4792;50.088;8.122;2022-08-03T06:34:01;23.80;99.90
9509;DHT22;4792;50.088;8.122;2022-08-03T06:36:50;23.90;99.90
9509;DHT22;4792;50.088;8.122;2022-08-03T06:39:19;24.00;99.90
9509;DHT22;4792;50.088;8.122;2022-08-03T06:41:50;24.00;99.90
9509;DHT22;4792;50.088;8.122;2022-08-03T06:44:18;24.10;99.90
9509;DHT22;4792;50.088;8.122;2022-08-03T06:46:46;24.20;99.90
9509;DHT22;4792;50.088;8.122;2022-08-03T06:49:16;24.20;99.90
9509;DHT22;4792;50.088;8.122;2022-08-03T06:51:45;24.30;99.90
9509;DHT22;4792;50.088;8.122;2022-08-03T06:54:33;24.30;99.90
9509;DHT22;4792;50.088;8.122;2022-08-03T06:57:02;24.50;99.90
9509;DHT22;4792;50.088;8.122;2022-08-03T06:59:30;24.60;99.90
9509;DHT22;4792;50.088;8.122;2022-08-03T07:02:18;24.60;99.90
9509;DHT22;4792;50.088;8.122;2022-08-03T07:04:48;24.70;99.90
9509;DHT22;4792;50.088;8.122;2022-08-03T07:07:17;24.80;99.90
9509;DHT22;4792;50.088;8.122;2022-08-03T07:09:46;24.80;99.90
9509;DHT22;4792;50.088;8.122;2022-08-03T07:12:24;24.90;99.90
9509;DHT22;4792;50.088;8.122;2022-08-03T07:14:52;25.10;99.90
9509;DHT22;4792;50.088;8.122;2022-08-03T07:17:27;25.20;99.90
9509;DHT22;4792;50.088;8.122;2022-08-03T07:19:56;25.20;99.90
9509;DHT22;4792;50.088;8.122;2022-08-03T07:22:25;25.20;99.90
9509;DHT22;4792;50.088;8.122;2022-08-03T07:24:54;25.40;99.90
9509;DHT22;4792;50.088;8.122;2022-08-03T07:27:22;25.50;99.90
9509;DHT22;4792;50.088;8.122;2022-08-03T07:29:52;25.50;99.90
9509;DHT22;4792;50.088;8.122;2022-08-03T07:32:21;25.50;99.90
9509;DHT22;4792;50.088;8.122;2022-08-03T07:34:49;25.60;99.90
9509;DHT22;4792;50.088;8.122;2022-08-03T07:37:18;25.70;99.90
9509;DHT22;4792;50.088;8.122;2022-08-03T07:39:47;25.80;99.90
9509;DHT22;4792;50.088;8.122;2022-08-03T07:42:15;25.90;99.90
9509;DHT22;4792;50.088;8.122;2022-08-03T07:44:44;26.00;99.90
9509;DHT22;4792;50.088;8.122;2022-08-03T07:47:12;26.00;99.90
9509;DHT22;4792;50.088;8.122;2022-08-03T07:49:48;26.00;99.90
9509;DHT22;4792;50.088;8.122;2022-08-03T07:52:18;26.20;99.90
9509;DHT22;4792;50.088;8.122;2022-08-03T07:55:04;26.40;99.90
9509;DHT22;4792;50.088;8.122;2022-08-03T07:57:34;26.50;99.90
9509;DHT22;4792;50.088;8.122;2022-08-03T08:00:03;26.50;99.90
9509;DHT22;4792;50.088;8.122;2022-08-03T08:02:31;26.40;99.90
9509;DHT22;4792;50.088;8.122;2022-08-03T08:05:00;26.30;99.90
9509;DHT22;4792;50.088;8.122;2022-08-03T08:07:33;26.40;99.90
9509;DHT22;4792;50.088;8.122;2022-08-03T08:10:01;26.40;99.90
9509;DHT22;4792;50.088;8.122;2022-08-03T08:12:29;26.30;99.90
9509;DHT22;4792;50.088;8.122;2022-08-03T08:14:57;26.50;99.90
9509;DHT22;4792;50.088;8.122;2022-08-03T08:17:26;26.50;99.90
9509;DHT22;4792;50.088;8.122;2022-08-03T08:19:54;26.40;99.90
9509;DHT22;4792;50.088;8.122;2022-08-03T08:22:23;26.70;99.90
9509;DHT22;4792;50.088;8.122;2022-08-03T08:24:58;26.60;99.90
9509;DHT22;4792;50.088;8.122;2022-08-03T08:27:27;26.80;99.90
9509;DHT22;4792;50.088;8.122;2022-08-03T08:30:17;27.00;99.90
9509;DHT22;4792;50.088;8.122;2022-08-03T08:32:46;27.00;99.90
9509;DHT22;4792;50.088;8.122;2022-08-03T08:35:15;27.20;99.90
9509;DHT22;4792;50.088;8.122;2022-08-03T08:37:45;27.40;99.90
9509;DHT22;4792;50.088;8.122;2022-08-03T08:40:20;27.50;99.90
9509;DHT22;4792;50.088;8.122;2022-08-03T08:42:49;27.30;99.90
9509;DHT22;4792;50.088;8.122;2022-08-03T08:45:24;27.30;99.90
9509;DHT22;4792;50.088;8.122;2022-08-03T08:47:54;27.40;99.90
9509;DHT22;4792;50.088;8.122;2022-08-03T08:50:30;27.60;99.90
9509;DHT22;4792;50.088;8.122;2022-08-03T08:53:01;27.70;99.90
9509;DHT22;4792;50.088;8.122;2022-08-03T08:55:33;27.50;99.90
9509;DHT22;4792;50.088;8.122;2022-08-03T08:58:22;27.60;99.90
9509;DHT22;4792;50.088;8.122;2022-08-03T09:00:50;27.60;99.90
9509;DHT22;4792;50.088;8.122;2022-08-03T09:03:18;27.80;99.90
9509;DHT22;4792;50.088;8.122;2022-08-03T09:05:57;27.80;99.90
9509;DHT22;4792;50.088;8.122;2022-08-03T09:08:26;27.90;99.90
9509;DHT22;4792;50.088;8.122;2022-08-03T09:10:56;27.90;99.90
9509;DHT22;4792;50.088;8.122;2022-08-03T09:13:25;28.10;99.90
9509;DHT22;4792;50.088;8.122;2022-08-03T09:16:11;28.20;99.90
9509;DHT22;4792;50.088;8.122;2022-08-03T09:18:40;28.30;99.90
9509;DHT22;4792;50.088;8.122;2022-08-03T09:21:18;28.40;99.90
9509;DHT22;4792;50.088;8.122;2022-08-03T09:24:03;28.50;99.90
9509;DHT22;4792;50.088;8.122;2022-08-03T09:26:49;28.60;99.90
9509;DHT22;4792;50.088;8.122;2022-08-03T09:29:20;28.80;99.90
9509;DHT22;4792;50.088;8.122;2022-08-03T09:31:59;28.80;99.90
9509;DHT22;4792;50.088;8.122;2022-08-03T09:34:28;29.00;99.60
9509;DHT22;4792;50.088;8.122;2022-08-03T09:36:56;29.20;99.20
9509;DHT22;4792;50.088;8.122;2022-08-03T09:39:26;29.30;98.10
9509;DHT22;4792;50.088;8.122;2022-08-03T09:42:11;29.50;98.20
9509;DHT22;4792;50.088;8.122;2022-08-03T09:44:42;29.40;98.30
9509;DHT22;4792;50.088;8.122;2022-08-03T09:47:12;29.30;98.10
9509;DHT22;4792;50.088;8.122;2022-08-03T09:49:42;29.50;97.60
9509;DHT22;4792;50.088;8.122;2022-08-03T09:52:29;29.80;97.60
9509;DHT22;4792;50.088;8.122;2022-08-03T09:55:17;29.90;96.50
9509;DHT22;4792;50.088;8.122;2022-08-03T09:58:10;30.00;96.80
9509;DHT22;4792;50.088;8.122;2022-08-03T10:00:56;29.80;96.10
9509;DHT22;4792;50.088;8.122;2022-08-03T10:03:27;29.70;95.10
9509;DHT22;4792;50.088;8.122;2022-08-03T10:05:56;29.80;94.90
9509;DHT22;4792;50.088;8.122;2022-08-03T10:08:26;29.90;95.50
9509;DHT22;4792;50.088;8.122;2022-08-03T10:10:54;29.90;95.30
9509;DHT22;4792;50.088;8.122;2022-08-03T10:13:26;30.20;94.70
9509;DHT22;4792;50.088;8.122;2022-08-03T10:15:54;30.30;94.70
9509;DHT22;4792;50.088;8.122;2022-08-03T10:18:42;30.40;94.50
9509;DHT22;4792;50.088;8.122;2022-08-03T10:21:12;30.70;94.30
9509;DHT22;4792;50.088;8.122;2022-08-03T10:23:43;30.90;93.50
9509;DHT22;4792;50.088;8.122;2022-08-03T10:26:15;31.00;92.80
9509;DHT22;4792;50.088;8.122;2022-08-03T10:28:49;31.00;92.80
9509;DHT22;4792;50.088;8.122;2022-08-03T10:31:21;30.60;92.50
9509;DHT22;4792;50.088;8.122;2022-08-03T10:33:52;30.50;92.30
9509;DHT22;4792;50.088;8.122;2022-08-03T10:36:26;30.30;92.50
9509;DHT22;4792;50.088;8.122;2022-08-03T10:38:58;30.30;92.10
9509;DHT22;4792;50.088;8.122;2022-08-03T10:41:31;30.60;92.70
9509;DHT22;4792;50.088;8.122;2022-08-03T10:44:06;30.50;92.80
9509;DHT22;4792;50.088;8.122;2022-08-03T10:46:36;30.40;92.40
9509;DHT22;4792;50.088;8.122;2022-08-03T10:49:12;30.70;92.80
9509;DHT22;4792;50.088;8.122;2022-08-03T10:51:41;31.00;92.40
9509;DHT22;4792;50.088;8.122;2022-08-03T10:57:46;31.20;92.30
9509;DHT22;4792;50.088;8.122;2022-08-03T11:00:18;31.40;91.50
9509;DHT22;4792;50.088;8.122;2022-08-03T11:03:09;31.40;91.20
9509;DHT22;4792;50.088;8.122;2022-08-03T11:05:39;31.50;91.70
9509;DHT22;4792;50.088;8.122;2022-08-03T11:08:22;31.30;91.00
9509;DHT22;4792;50.088;8.122;2022-08-03T11:10:53;32.00;90.90
9509;DHT22;4792;50.088;8.122;2022-08-03T11:13:23;32.30;90.60
9509;DHT22;4792;50.088;8.122;2022-08-03T11:15:55;32.10;90.50
9509;DHT22;4792;50.088;8.122;2022-08-03T11:18:29;31.60;90.30
9509;DHT22;4792;50.088;8.122;2022-08-03T11:20:58;32.00;90.40
9509;DHT22;4792;50.088;8.122;2022-08-03T11:23:41;32.00;89.40
9509;DHT22;4792;50.088;8.122;2022-08-03T11:26:29;31.80;89.20
9509;DHT22;4792;50.088;8.122;2022-08-03T11:29:25;32.10;88.00
9509;DHT22;4792;50.088;8.122;2022-08-03T11:31:55;32.10;87.10
9509;DHT22;4792;50.088;8.122;2022-08-03T11:34:24;31.80;87.10
9509;DHT22;4792;50.088;8.122;2022-08-03T11:37:17;32.30;87.10
9509;DHT22;4792;50.088;8.122;2022-08-03T11:39:52;33.00;86.90
9509;DHT22;4792;50.088;8.122;2022-08-03T11:42:41;32.80;85.90
9509;DHT22;4792;50.088;8.122;2022-08-03T11:45:14;32.50;86.20
9509;DHT22;4792;50.088;8.122;2022-08-03T11:47:43;33.00;85.30
9509;DHT22;4792;50.088;8.122;2022-08-03T11:50:17;33.40;84.80
9509;DHT22;4792;50.088;8.122;2022-08-03T11:52:48;33.40;82.50
9509;DHT22;4792;50.088;8.122;2022-08-03T11:55:18;33.40;82.60
9509;DHT22;4792;50.088;8.122;2022-08-03T11:57:48;33.60;83.20
9509;DHT22;4792;50.088;8.122;2022-08-03T12:00:36;33.80;82.70
9509;DHT22;4792;50.088;8.122;2022-08-03T12:03:07;34.30;80.60
9509;DHT22;4792;50.088;8.122;2022-08-03T12:05:37;33.80;80.80
9509;DHT22;4792;50.088;8.122;2022-08-03T12:08:07;33.50;81.10
9509;DHT22;4792;50.088;8.122;2022-08-03T12:10:36;33.30;81.40
9509;DHT22;4792;50.088;8.122;2022-08-03T12:13:06;33.30;82.70
9509;DHT22;4792;50.088;8.122;2022-08-03T12:15:56;33.80;81.80
9509;DHT22;4792;50.088;8.122;2022-08-03T12:18:26;33.70;81.00
9509;DHT22;4792;50.088;8.122;2022-08-03T12:21:04;34.00;80.40
9509;DHT22;4792;50.088;8.122;2022-08-03T12:23:33;34.50;79.40
9509;DHT22;4792;50.088;8.122;2022-08-03T12:26:05;34.90;78.60
9509;DHT22;4792;50.088;8.122;2022-08-03T12:28:33;34.90;77.60
9509;DHT22;4792;50.088;8.122;2022-08-03T12:31:05;34.80;77.30
9509;DHT22;4792;50.088;8.122;2022-08-03T12:34:00;35.00;76.60
9509;DHT22;4792;50.088;8.122;2022-08-03T12:36:30;35.00;76.00
9509;DHT22;4792;50.088;8.122;2022-08-03T12:39:00;35.00;75.10
9509;DHT22;4792;50.088;8.122;2022-08-03T12:41:30;34.80;75.30
9509;DHT22;4792;50.088;8.122;2022-08-03T12:44:00;34.80;75.00
9509;DHT22;4792;50.088;8.122;2022-08-03T12:46:32;34.50;73.90
9509;DHT22;4792;50.088;8.122;2022-08-03T12:49:07;34.00;74.50
9509;DHT22;4792;50.088;8.122;2022-08-03T12:51:36;34.10;74.60
9509;DHT22;4792;50.088;8.122;2022-08-03T12:54:05;34.20;74.10
9509;DHT22;4792;50.088;8.122;2022-08-03T12:56:33;34.30;72.90
9509;DHT22;4792;50.088;8.122;2022-08-03T12:59:22;34.20;72.80
9509;DHT22;4792;50.088;8.122;2022-08-03T13:01:58;34.80;73.50
9509;DHT22;4792;50.088;8.122;2022-08-03T13:04:32;35.00;73.40
9509;DHT22;4792;50.088;8.122;2022-08-03T13:07:03;34.80;71.50
9509;DHT22;4792;50.088;8.122;2022-08-03T13:09:41;35.10;72.30
9509;DHT22;4792;50.088;8.122;2022-08-03T13:12:12;35.90;71.60
9509;DHT22;4792;50.088;8.122;2022-08-03T13:14:41;36.00;70.20
9509;DHT22;4792;50.088;8.122;2022-08-03T13:17:09;35.60;70.00
9509;DHT22;4792;50.088;8.122;2022-08-03T13:19:39;35.60;70.40
9509;DHT22;4792;50.088;8.122;2022-08-03T13:22:11;35.90;71.20
9509;DHT22;4792;50.088;8.122;2022-08-03T13:24:40;36.10;69.50
9509;DHT22;4792;50.088;8.122;2022-08-03T13:27:09;35.60;69.50
9509;DHT22;4792;50.088;8.122;2022-08-03T13:29:57;35.30;70.80
9509;DHT22;4792;50.088;8.122;2022-08-03T13:32:26;34.70;70.80
9509;DHT22;4792;50.088;8.122;2022-08-03T13:34:55;34.80;72.40
9509;DHT22;4792;50.088;8.122;2022-08-03T13:37:23;35.00;72.30
9509;DHT22;4792;50.088;8.122;2022-08-03T13:39:52;35.20;71.40
9509;DHT22;4792;50.088;8.122;2022-08-03T13:42:27;35.00;69.70
9509;DHT22;4792;50.088;8.122;2022-08-03T13:44:56;35.30;70.00
9509;DHT22;4792;50.088;8.122;2022-08-03T13:47:24;35.60;69.80
9509;DHT22;4792;50.088;8.122;2022-08-03T13:49:52;35.70;68.50
9509;DHT22;4792;50.088;8.122;2022-08-03T13:52:30;35.30;69.20
9509;DHT22;4792;50.088;8.122;2022-08-03T13:54:58;35.70;68.30
9509;DHT22;4792;50.088;8.122;2022-08-03T13:57:26;35.80;68.10
9509;DHT22;4792;50.088;8.122;2022-08-03T14:00:16;35.70;67.90
9509;DHT22;4792;50.088;8.122;2022-08-03T14:02:58;35.60;67.80
9509;DHT22;4792;50.088;8.122;2022-08-03T14:05:38;35.50;67.30
9509;DHT22;4792;50.088;8.122;2022-08-03T14:08:08;35.40;67.30
9509;DHT22;4792;50.088;8.122;2022-08-03T14:10:38;35.70;68.30
9509;DHT22;4792;50.088;8.122;2022-08-03T14:13:07;36.60;68.00
9509;DHT22;4792;50.088;8.122;2022-08-03T14:15:36;36.60;65.50
9509;DHT22;4792;50.088;8.122;2022-08-03T14:18:05;36.60;65.30
9509;DHT22;4792;50.088;8.122;2022-08-03T14:20:41;36.50;65.00
9509;DHT22;4792;50.088;8.122;2022-08-03T14:23:21;36.20;65.10
9509;DHT22;4792;50.088;8.122;2022-08-03T14:25:50;36.10;65.10
9509;DHT22;4792;50.088;8.122;2022-08-03T14:28:19;36.00;65.50
9509;DHT22;4792;50.088;8.122;2022-08-03T14:30:49;35.70;65.40
9509;DHT22;4792;50.088;8.122;2022-08-03T14:33:18;35.90;66.50
9509;DHT22;4792;50.088;8.122;2022-08-03T14:35:46;36.00;65.90
9509;DHT22;4792;50.088;8.122;2022-08-03T14:38:15;36.40;66.20
9509;DHT22;4792;50.088;8.122;2022-08-03T14:40:45;36.20;65.50
9509;DHT22;4792;50.088;8.122;2022-08-03T14:43:14;36.30;64.90
9509;DHT22;4792;50.088;8.122;2022-08-03T14:45:43;36.20;64.70
9509;DHT22;4792;50.088;8.122;2022-08-03T14:48:12;36.20;64.40
9509;DHT22;4792;50.088;8.122;2022-08-03T14:51:00;36.30;64.90
9509;DHT22;4792;50.088;8.122;2022-08-03T14:53:28;36.40;64.10
9509;DHT22;4792;50.088;8.122;2022-08-03T14:55:58;36.20;64.10
9509;DHT22;4792;50.088;8.122;2022-08-03T14:58:26;35.80;64.40
9509;DHT22;4792;50.088;8.122;2022-08-03T15:00:54;35.70;64.70
9509;DHT22;4792;50.088;8.122;2022-08-03T15:03:24;35.70;65.30
9509;DHT22;4792;50.088;8.122;2022-08-03T15:05:54;35.70;65.10
9509;DHT22;4792;50.088;8.122;2022-08-03T15:08:23;35.30;65.40
9509;DHT22;4792;50.088;8.122;2022-08-03T15:10:52;35.60;65.50
9509;DHT22;4792;50.088;8.122;2022-08-03T15:13:22;36.10;65.00
9509;DHT22;4792;50.088;8.122;2022-08-03T15:15:51;36.30;64.10
9509;DHT22;4792;50.088;8.122;2022-08-03T15:18:19;36.60;64.80
9509;DHT22;4792;50.088;8.122;2022-08-03T15:20:47;36.70;63.50
9509;DHT22;4792;50.088;8.122;2022-08-03T15:23:17;36.20;63.80
9509;DHT22;4792;50.088;8.122;2022-08-03T15:25:45;35.90;64.40
9509;DHT22;4792;50.088;8.122;2022-08-03T15:28:35;35.90;64.60
9509;DHT22;4792;50.088;8.122;2022-08-03T15:31:03;36.20;63.80
9509;DHT22;4792;50.088;8.122;2022-08-03T15:33:32;36.20;64.00
9509;DHT22;4792;50.088;8.122;2022-08-03T15:36:01;36.10;63.80
9509;DHT22;4792;50.088;8.122;2022-08-03T15:38:29;35.50;64.10
9509;DHT22;4792;50.088;8.122;2022-08-03T15:40:57;35.60;64.60
9509;DHT22;4792;50.088;8.122;2022-08-03T15:43:26;35.90;64.30
9509;DHT22;4792;50.088;8.122;2022-08-03T15:45:55;35.90;64.60
9509;DHT22;4792;50.088;8.122;2022-08-03T15:48:44;36.00;64.30
9509;DHT22;4792;50.088;8.122;2022-08-03T15:51:13;36.10;63.90
9509;DHT22;4792;50.088;8.122;2022-08-03T15:53:41;36.00;63.80
9509;DHT22;4792;50.088;8.122;2022-08-03T15:56:09;36.10;63.90
9509;DHT22;4792;50.088;8.122;2022-08-03T15:58:44;36.00;63.60
9509;DHT22;4792;50.088;8.122;2022-08-03T16:01:34;35.70;63.60
9509;DHT22;4792;50.088;8.122;2022-08-03T16:04:05;35.70;64.20
9509;DHT22;4792;50.088;8.122;2022-08-03T16:06:50;35.30;64.40
9509;DHT22;4792;50.088;8.122;2022-08-03T16:09:18;35.40;64.40
9509;DHT22;4792;50.088;8.122;2022-08-03T16:12:06;35.30;64.60
9509;DHT22;4792;50.088;8.122;2022-08-03T16:14:42;35.60;64.60
9509;DHT22;4792;50.088;8.122;2022-08-03T16:17:20;35.80;64.40
9509;DHT22;4792;50.088;8.122;2022-08-03T16:19:50;35.90;64.40
9509;DHT22;4792;50.088;8.122;2022-08-03T16:22:21;35.70;64.30
9509;DHT22;4792;50.088;8.122;2022-08-03T16:24:49;35.50;64.60
9509;DHT22;4792;50.088;8.122;2022-08-03T16:27:18;35.30;65.00
9509;DHT22;4792;50.088;8.122;2022-08-03T16:30:08;35.00;65.50
9509;DHT22;4792;50.088;8.122;2022-08-03T16:32:38;34.90;66.00
9509;DHT22;4792;50.088;8.122;2022-08-03T16:35:06;34.70;66.10
9509;DHT22;4792;50.088;8.122;2022-08-03T16:37:45;34.60;66.50
9509;DHT22;4792;50.088;8.122;2022-08-03T16:40:22;34.50;66.20